createdAt,value
2022-11-21T00:01:21.451Z,76.46
2022-11-21T00:03:49.457Z,76.80
2022-11-21T00:06:17.464Z,76.56
2022-11-21T00:08:45.715Z,77.06
2022-11-21T00:11:17.688Z,76.80
2022-11-21T00:13:45.509Z,76.42
2022-11-21T00:16:15.299Z,76.64
2022-11-21T00:18:49.438Z,76.29
2022-11-21T00:21:19.419Z,76.61
2022-11-21T00:23:48.564Z,76.88
2022-11-21T00:26:17.910Z,77.01
2022-11-21T00:28:46.189Z,76.72
2022-11-21T00:31:22.855Z,76.90
2022-11-21T00:33:50.804Z,76.72
2022-11-21T00:36:18.864Z,77.21
2022-11-21T00:38:47.166Z,76.82
2022-11-21T00:41:17.183Z,77.44
2022-11-21T00:43:47.546Z,77.36
2022-11-21T00:46:18.166Z,77.15
2022-11-21T00:48:45.975Z,77.06
2022-11-21T00:51:13.739Z,76.54
2022-11-21T00:53:42.006Z,76.42
2022-11-21T00:56:11.949Z,76.80
2022-11-21T00:58:41.129Z,77.08
2022-11-21T01:01:11.757Z,77.18
2022-11-21T01:03:40.749Z,77.07
2022-11-21T01:06:10.332Z,77.48
2022-11-21T01:08:40.158Z,77.11
2022-11-21T01:11:13.560Z,77.11
2022-11-21T01:13:43.056Z,77.29
2022-11-21T01:16:15.861Z,77.25
2022-11-21T01:18:44.095Z,77.02
2022-11-21T01:21:16.999Z,77.11
2022-11-21T01:23:47.194Z,76.92
2022-11-21T01:26:17.485Z,77.34
2022-11-21T01:28:47.030Z,77.89
2022-11-21T01:31:30.585Z,77.81
2022-11-21T01:34:02.286Z,78.31
2022-11-21T01:36:31.663Z,78.39
2022-11-21T01:39:03.117Z,78.06
2022-11-21T01:41:33.541Z,78.15
2022-11-21T01:44:12.689Z,78.10
2022-11-21T01:46:41.918Z,77.69
2022-11-21T01:49:27.882Z,77.24
2022-11-21T01:52:00.136Z,78.11
2022-11-21T01:54:31.093Z,78.84
2022-11-21T01:57:04.181Z,78.44
2022-11-21T01:59:39.799Z,78.58
2022-11-21T02:02:10.024Z,78.56
2022-11-21T02:04:40.366Z,78.29
2022-11-21T02:07:09.750Z,79.10
2022-11-21T02:09:41.533Z,80.00
2022-11-21T02:12:12.921Z,80.16
2022-11-21T02:14:44.592Z,80.89
2022-11-21T02:17:24.761Z,80.92
2022-11-21T02:19:57.050Z,80.43
2022-11-21T02:22:37.606Z,80.55
2022-11-21T02:25:09.656Z,80.92
2022-11-21T02:27:37.508Z,81.08
2022-11-21T02:30:11.080Z,81.76
2022-11-21T02:32:41.376Z,81.34
2022-11-21T02:35:10.089Z,81.31
2022-11-21T02:37:38.583Z,81.06
2022-11-21T02:40:11.209Z,80.92
2022-11-21T02:42:43.070Z,80.74
2022-11-21T02:45:17.392Z,81.02
2022-11-21T02:47:46.247Z,81.08
2022-11-21T02:50:21.167Z,81.29
2022-11-21T02:52:48.903Z,81.11
2022-11-21T02:55:24.340Z,80.25
2022-11-21T02:57:52.549Z,80.77
2022-11-21T03:00:21.546Z,80.53
2022-11-21T03:02:49.477Z,80.64
2022-11-21T03:05:21.180Z,80.52
2022-11-21T03:07:49.306Z,80.51
2022-11-21T03:10:20.526Z,81.06
2022-11-21T03:12:49.760Z,81.17
2022-11-21T03:15:23.490Z,81.08
2022-11-21T03:17:51.277Z,81.06
2022-11-21T03:20:19.346Z,81.29
2022-11-21T03:22:47.916Z,81.42
2022-11-21T03:25:15.714Z,81.67
2022-11-21T03:27:43.582Z,81.85
2022-11-21T03:30:14.174Z,81.98
2022-11-21T03:32:42.079Z,81.87
2022-11-21T03:35:10.251Z,81.69
2022-11-21T03:37:38.076Z,81.65
2022-11-21T03:40:07.035Z,81.30
2022-11-21T03:42:35.207Z,81.63
2022-11-21T03:45:03.011Z,81.63
2022-11-21T03:47:32.235Z,81.73
2022-11-21T03:50:00.060Z,81.50
2022-11-21T03:52:27.873Z,81.36
2022-11-21T03:54:57.573Z,81.94
2022-11-21T03:57:25.386Z,81.64
2022-11-21T03:59:53.376Z,81.79
2022-11-21T04:02:21.235Z,81.46
2022-11-21T04:04:50.414Z,81.45
2022-11-21T04:07:18.590Z,81.51
2022-11-21T04:09:46.629Z,81.88
2022-11-21T04:12:16.559Z,81.77
2022-11-21T04:14:44.969Z,82.03
2022-11-21T04:17:12.784Z,82.00
2022-11-21T04:19:40.673Z,81.95
2022-11-21T04:22:09.825Z,81.53
2022-11-21T04:24:45.393Z,81.90
2022-11-21T04:27:13.540Z,81.71
2022-11-21T04:29:41.385Z,81.68
2022-11-21T04:32:09.542Z,81.71
2022-11-21T04:34:39.609Z,81.45
2022-11-21T04:37:11.348Z,81.68
2022-11-21T04:39:41.296Z,81.47
2022-11-21T04:42:15.342Z,81.54
2022-11-21T04:44:43.325Z,81.94
2022-11-21T04:47:21.306Z,81.83
2022-11-21T04:49:49.179Z,81.82
2022-11-21T04:52:17.133Z,81.97
2022-11-21T04:54:46.373Z,81.93
2022-11-21T04:57:15.443Z,81.72
2022-11-21T04:59:43.232Z,81.87
2022-11-21T05:02:11.289Z,82.11
2022-11-21T05:04:39.182Z,82.33
2022-11-21T05:07:09.210Z,82.21
2022-11-21T05:09:37.055Z,82.19
2022-11-21T05:12:24.562Z,82.31
2022-11-21T05:14:52.359Z,82.03
2022-11-21T05:17:23.084Z,81.81
2022-11-21T05:19:50.960Z,81.92
2022-11-21T05:22:18.886Z,81.63
2022-11-21T05:24:46.887Z,81.96
2022-11-21T05:27:16.070Z,81.74
2022-11-21T05:29:46.402Z,81.83
2022-11-21T05:32:17.390Z,81.63
2022-11-21T05:34:52.937Z,81.98
2022-11-21T05:37:21.928Z,82.14
2022-11-21T05:39:49.831Z,81.74
2022-11-21T05:42:42.532Z,82.05
2022-11-21T05:45:10.183Z,82.22
2022-11-21T05:47:38.373Z,82.25
2022-11-21T05:50:07.053Z,82.17
2022-11-21T05:52:35.257Z,81.96
2022-11-21T05:55:03.153Z,81.81
2022-11-21T05:57:34.327Z,81.75
2022-11-21T06:00:02.131Z,82.00
2022-11-21T06:02:52.006Z,81.53
2022-11-21T06:05:19.991Z,81.63
2022-11-21T06:07:47.901Z,81.34
2022-11-21T06:10:16.129Z,81.59
2022-11-21T06:12:48.329Z,81.75
2022-11-21T06:15:16.979Z,82.08
2022-11-21T06:17:50.665Z,81.57
2022-11-21T06:20:18.542Z,81.85
2022-11-21T06:22:46.347Z,81.62
2022-11-21T06:25:14.481Z,82.07
2022-11-21T06:27:42.219Z,81.81
2022-11-21T06:30:12.210Z,81.88
2022-11-21T06:32:40.127Z,81.65
2022-11-21T06:35:11.907Z,81.76
2022-11-21T06:37:54.851Z,81.73
2022-11-21T06:40:22.680Z,81.53
2022-11-21T06:42:50.470Z,81.39
2022-11-21T06:45:21.891Z,81.93
2022-11-21T06:47:49.790Z,82.07
2022-11-21T06:50:17.981Z,82.14
2022-11-21T06:52:45.789Z,82.32
2022-11-21T06:55:14.275Z,82.85
2022-11-21T06:57:42.244Z,82.33
2022-11-21T07:00:11.112Z,82.32
2022-11-21T07:02:40.203Z,82.25
2022-11-21T07:05:08.306Z,82.40
2022-11-21T07:07:36.160Z,82.24
2022-11-21T07:10:04.627Z,82.10
2022-11-21T07:12:53.030Z,81.93
2022-11-21T07:15:23.065Z,81.84
2022-11-21T07:18:00.609Z,81.56
2022-11-21T07:20:31.571Z,82.03
2022-11-21T07:22:59.430Z,82.03
2022-11-21T07:25:29.413Z,82.46
2022-11-21T07:28:00.738Z,82.33
2022-11-21T07:30:29.674Z,82.37
2022-11-21T07:33:03.436Z,82.31
2022-11-21T07:35:32.739Z,82.51
2022-11-21T07:38:01.115Z,82.94
2022-11-21T07:40:33.826Z,82.98
2022-11-21T07:43:06.727Z,82.54
2022-11-21T07:45:47.624Z,82.47
2022-11-21T07:48:19.055Z,82.42
2022-11-21T07:50:49.554Z,82.41
2022-11-21T07:53:17.499Z,82.39
2022-11-21T07:55:45.236Z,82.48
2022-11-21T07:58:17.894Z,82.51
2022-11-21T08:00:45.846Z,82.09
2022-11-21T08:03:15.953Z,82.57
2022-11-21T08:05:45.319Z,82.53
2022-11-21T08:08:14.573Z,82.54
2022-11-21T08:10:47.051Z,82.44
2022-11-21T08:13:15.769Z,81.98
2022-11-21T08:15:56.071Z,82.09
2022-11-21T08:18:25.263Z,82.25
2022-11-21T08:20:56.018Z,81.72
2022-11-21T08:23:23.834Z,81.63
2022-11-21T08:25:54.941Z,81.54
2022-11-21T08:28:23.146Z,81.82
2022-11-21T08:30:57.311Z,81.87
2022-11-21T08:33:29.098Z,81.88
2022-11-21T08:35:57.228Z,81.75
2022-11-21T08:38:25.140Z,81.38
2022-11-21T08:41:17.382Z,81.67
2022-11-21T08:43:46.026Z,81.88
2022-11-21T08:46:13.819Z,81.78
2022-11-21T08:48:42.997Z,81.67
2022-11-21T08:51:14.075Z,81.86
2022-11-21T08:53:41.982Z,82.03
2022-11-21T08:56:09.902Z,81.73
2022-11-21T08:58:37.771Z,81.79
2022-11-21T09:01:05.617Z,81.34
2022-11-21T09:03:33.897Z,81.38
2022-11-21T09:06:03.335Z,81.51
2022-11-21T09:08:32.080Z,80.97
2022-11-21T09:11:00.212Z,81.31
2022-11-21T09:13:31.212Z,80.72
2022-11-21T09:16:20.463Z,80.76
2022-11-21T09:18:49.211Z,80.44
2022-11-21T09:21:19.761Z,80.08
2022-11-21T09:23:47.813Z,79.86
2022-11-21T09:26:15.674Z,79.82
2022-11-21T09:28:43.493Z,79.82
2022-11-21T09:31:11.435Z,80.03
2022-11-21T09:33:39.331Z,79.73
2022-11-21T09:36:07.241Z,79.71
2022-11-21T09:38:36.431Z,79.82
2022-11-21T09:41:42.592Z,79.77
2022-11-21T09:44:18.537Z,79.82
2022-11-21T09:47:01.448Z,79.67
2022-11-21T09:49:31.042Z,79.41
2022-11-21T09:52:00.383Z,79.31
2022-11-21T09:54:35.803Z,79.38
2022-11-21T09:57:03.725Z,79.60
2022-11-21T09:59:36.190Z,79.06
2022-11-21T10:02:15.996Z,78.85
2022-11-21T10:04:44.309Z,78.77
2022-11-21T10:07:20.426Z,78.89
2022-11-21T10:10:04.661Z,78.65
2022-11-21T10:12:43.688Z,79.09
2022-11-21T10:15:39.855Z,79.13
2022-11-21T10:18:31.777Z,79.24
2022-11-21T10:21:10.122Z,79.01
2022-11-21T10:23:54.660Z,78.83
2022-11-21T10:26:37.204Z,79.03
2022-11-21T10:29:12.125Z,78.92
2022-11-21T10:31:42.420Z,79.13
2022-11-21T10:34:13.495Z,78.67
2022-11-21T10:36:44.565Z,78.69
2022-11-21T10:39:19.564Z,78.49
2022-11-21T10:41:54.430Z,78.75
2022-11-21T10:44:45.490Z,79.04
2022-11-21T10:47:27.276Z,79.08
2022-11-21T10:50:16.568Z,78.92
2022-11-21T10:52:49.229Z,79.07
2022-11-21T10:55:19.423Z,78.81
2022-11-21T10:57:50.773Z,78.37
2022-11-21T11:00:24.172Z,78.79
2022-11-21T11:03:16.895Z,78.36
2022-11-21T11:05:56.508Z,78.71
2022-11-21T11:08:31.849Z,79.05
2022-11-21T11:11:08.084Z,79.18
2022-11-21T11:13:56.111Z,78.85
2022-11-21T11:16:29.425Z,78.89
2022-11-21T11:19:01.140Z,78.69
2022-11-21T11:21:31.241Z,79.24
2022-11-21T11:24:30.211Z,79.20
2022-11-21T11:27:00.786Z,79.23
2022-11-21T11:29:32.341Z,79.42
2022-11-21T11:32:19.418Z,79.76
2022-11-21T11:34:59.042Z,79.75
2022-11-21T11:37:40.451Z,79.08
2022-11-21T11:40:23.902Z,79.11
2022-11-21T11:43:53.810Z,79.15
2022-11-21T11:46:56.173Z,79.14
2022-11-21T11:49:52.624Z,79.46
2022-11-21T11:52:26.374Z,79.27
2022-11-21T11:54:59.420Z,79.05
2022-11-21T11:57:32.565Z,78.62
2022-11-21T12:00:14.987Z,79.04
2022-11-21T12:02:55.825Z,79.24
2022-11-21T12:05:27.270Z,79.42
2022-11-21T12:11:24.743Z,79.71
2022-11-21T12:13:55.792Z,79.24
2022-11-21T12:16:26.746Z,79.23
2022-11-21T12:19:01.173Z,79.65
2022-11-21T12:21:29.101Z,79.44
2022-11-21T12:23:58.413Z,79.26
2022-11-21T12:26:39.158Z,78.71
2022-11-21T12:29:20.250Z,79.02
2022-11-21T12:32:05.730Z,78.97
2022-11-21T12:34:56.803Z,78.57
2022-11-21T12:37:35.503Z,78.52
2022-11-21T12:40:17.442Z,78.38
2022-11-21T12:43:02.908Z,78.67
2022-11-21T12:45:33.389Z,78.00
2022-11-21T12:48:33.480Z,78.33
2022-11-21T12:51:50.104Z,78.01
2022-11-21T12:54:34.271Z,77.74
2022-11-21T12:57:11.473Z,77.77
2022-11-21T12:59:49.666Z,77.55
2022-11-21T13:02:31.199Z,77.79
2022-11-21T13:05:01.244Z,77.45
2022-11-21T13:07:32.556Z,77.55
2022-11-21T13:10:05.131Z,77.61
2022-11-21T13:12:42.060Z,78.20
2022-11-21T13:15:19.844Z,77.89
2022-11-21T13:17:54.186Z,77.80
2022-11-21T13:20:25.248Z,77.74
2022-11-21T13:22:59.508Z,78.18
2022-11-21T13:25:41.616Z,78.18
2022-11-21T13:28:32.002Z,78.47
2022-11-21T13:31:01.439Z,78.11
2022-11-21T13:33:50.039Z,78.53
2022-11-21T13:36:43.393Z,78.39
2022-11-21T13:39:34.793Z,77.87
2022-11-21T13:42:30.877Z,78.08
2022-11-21T13:44:59.424Z,77.97
2022-11-21T13:48:19.757Z,78.09
2022-11-21T13:51:20.776Z,77.68
2022-11-21T13:54:21.908Z,77.70
2022-11-21T13:57:05.828Z,77.96
2022-11-21T13:59:50.766Z,78.28
2022-11-21T14:02:52.008Z,78.15
2022-11-21T14:05:44.064Z,77.67
2022-11-21T14:08:29.816Z,77.97
2022-11-21T14:10:58.637Z,77.89
2022-11-21T14:13:33.763Z,78.35
2022-11-21T14:16:28.316Z,78.22
2022-11-21T14:19:06.595Z,78.23
2022-11-21T14:21:35.259Z,77.93
2022-11-21T14:24:06.065Z,78.05
2022-11-21T14:26:47.202Z,77.82
2022-11-21T14:29:22.608Z,78.51
2022-11-21T14:31:51.842Z,78.46
2022-11-21T14:34:27.663Z,78.18
2022-11-21T14:36:58.827Z,78.14
2022-11-21T14:39:37.191Z,78.55
2022-11-21T14:42:35.945Z,78.30
2022-11-21T14:45:16.297Z,78.24
2022-11-21T14:47:55.017Z,78.36
2022-11-21T14:50:34.553Z,78.29
2022-11-21T14:53:03.071Z,78.34
2022-11-21T14:55:34.706Z,79.02
2022-11-21T14:58:04.887Z,78.78
2022-11-21T15:00:58.700Z,78.60
2022-11-21T15:03:24.384Z,78.52
2022-11-21T15:06:06.895Z,78.75
2022-11-21T15:11:31.073Z,78.91
2022-11-21T15:14:15.638Z,78.94
2022-11-21T15:16:47.603Z,78.74
2022-11-21T15:19:25.838Z,78.97
2022-11-21T15:22:01.909Z,78.90
2022-11-21T15:24:40.366Z,78.76
2022-11-21T15:27:31.434Z,79.30
2022-11-21T15:30:04.077Z,79.35
2022-11-21T15:32:33.558Z,79.21
2022-11-21T15:35:21.601Z,79.27
2022-11-21T15:37:52.657Z,78.80
2022-11-21T15:40:21.386Z,79.44
2022-11-21T15:42:52.139Z,79.00
2022-11-21T15:45:26.761Z,79.20
2022-11-21T15:47:56.794Z,78.81
2022-11-21T15:50:26.173Z,79.23
2022-11-21T15:52:54.739Z,79.42
2022-11-21T15:55:25.940Z,79.07
2022-11-21T15:57:53.814Z,79.15
2022-11-21T16:00:21.787Z,79.21
2022-11-21T16:02:49.815Z,79.14
2022-11-21T16:05:19.112Z,79.33
2022-11-21T16:07:48.601Z,79.42
2022-11-21T16:10:24.305Z,79.44
2022-11-21T16:12:58.415Z,79.55
2022-11-21T16:15:26.513Z,78.98
2022-11-21T16:17:55.463Z,79.43
2022-11-21T16:20:24.669Z,79.54
2022-11-21T16:22:53.200Z,79.41
2022-11-21T16:25:21.620Z,79.58
2022-11-21T16:27:49.822Z,79.24
2022-11-21T16:30:18.041Z,79.80
2022-11-21T16:32:48.424Z,79.35
2022-11-21T16:35:19.118Z,78.70
2022-11-21T16:37:48.501Z,78.66
2022-11-21T16:40:19.469Z,78.70
2022-11-21T16:42:47.297Z,78.79
2022-11-21T16:45:15.672Z,78.59
2022-11-21T16:47:48.610Z,78.90
2022-11-21T16:50:18.800Z,78.18
2022-11-21T16:52:49.557Z,78.14
2022-11-21T16:55:18.029Z,78.18
2022-11-21T16:57:45.968Z,77.90
2022-11-21T17:00:14.501Z,78.17
2022-11-21T17:02:45.101Z,78.06
2022-11-21T17:05:14.902Z,78.17
2022-11-21T17:07:43.474Z,78.30
2022-11-21T17:10:16.732Z,78.38
2022-11-21T17:12:45.230Z,78.25
2022-11-21T17:15:15.666Z,78.19
2022-11-21T17:17:47.010Z,79.08
2022-11-21T17:20:14.854Z,78.70
2022-11-21T17:22:42.694Z,78.79
2022-11-21T17:25:11.101Z,79.56
2022-11-21T17:27:40.213Z,79.54
2022-11-21T17:30:10.745Z,79.56
2022-11-21T17:32:39.377Z,79.82
2022-11-21T17:35:08.527Z,80.03
2022-11-21T17:37:36.420Z,80.02
2022-11-21T17:40:06.620Z,79.72
2022-11-21T17:42:34.520Z,79.99
2022-11-21T17:45:03.679Z,79.99
2022-11-21T17:47:33.819Z,80.05
2022-11-21T17:50:06.071Z,80.40
2022-11-21T17:52:34.314Z,80.14
2022-11-21T17:55:02.429Z,79.86
2022-11-21T17:57:30.322Z,80.01
2022-11-21T18:00:00.358Z,80.01
2022-11-21T18:02:29.751Z,79.81
2022-11-21T18:05:00.569Z,80.04
2022-11-21T18:07:29.893Z,79.50
2022-11-21T18:10:14.335Z,79.95
2022-11-21T18:12:45.867Z,79.36
2022-11-21T18:15:13.709Z,79.77
2022-11-21T18:17:48.015Z,80.06
2022-11-21T18:20:16.036Z,79.83
2022-11-21T18:22:45.614Z,80.05
2022-11-21T18:25:13.517Z,79.64
2022-11-21T18:27:41.474Z,79.84
2022-11-21T18:30:10.392Z,79.19
2022-11-21T18:32:38.654Z,79.26
2022-11-21T18:35:11.374Z,79.65
2022-11-21T18:37:40.593Z,79.67
2022-11-21T18:40:10.852Z,79.44
2022-11-21T18:42:38.732Z,79.67
2022-11-21T18:45:08.255Z,80.10
2022-11-21T18:47:36.154Z,80.04
2022-11-21T18:50:04.107Z,79.66
2022-11-21T18:52:34.472Z,79.71
2022-11-21T18:55:03.572Z,79.40
2022-11-21T18:57:32.388Z,79.56
2022-11-21T19:00:05.881Z,79.06
2022-11-21T19:02:33.789Z,78.88
2022-11-21T19:05:01.823Z,79.29
2022-11-21T19:07:29.825Z,78.69
2022-11-21T19:10:20.783Z,78.27
2022-11-21T19:12:47.011Z,78.50
2022-11-21T19:15:15.033Z,78.54
2022-11-21T19:17:42.927Z,78.62
2022-11-21T19:20:12.005Z,78.04
2022-11-21T19:22:39.996Z,78.33
2022-11-21T19:25:10.110Z,78.58
2022-11-21T19:27:38.105Z,78.17
2022-11-21T19:30:13.414Z,78.62
2022-11-21T19:32:41.328Z,78.39
2022-11-21T19:35:10.127Z,78.55
2022-11-21T19:37:40.696Z,78.74
2022-11-21T19:40:11.660Z,79.04
2022-11-21T19:42:39.641Z,79.03
2022-11-21T19:45:08.677Z,79.08
2022-11-21T19:47:39.741Z,79.39
2022-11-21T19:50:08.660Z,79.03
2022-11-21T19:52:36.608Z,79.04
2022-11-21T19:55:05.004Z,78.51
2022-11-21T19:57:37.391Z,78.86
2022-11-21T20:00:07.003Z,78.47
2022-11-21T20:02:37.707Z,78.65
2022-11-21T20:05:06.204Z,78.17
2022-11-21T20:07:34.471Z,78.08
2022-11-21T20:10:06.053Z,78.53
2022-11-21T20:12:35.542Z,78.62
2022-11-21T20:15:03.502Z,78.12
2022-11-21T20:17:31.368Z,78.17
2022-11-21T20:19:59.980Z,78.21
2022-11-21T20:22:30.091Z,78.01
2022-11-21T20:25:01.112Z,78.32
2022-11-21T20:27:28.970Z,78.40
2022-11-21T20:30:06.821Z,78.48
2022-11-21T20:32:35.148Z,78.53
2022-11-21T20:35:03.076Z,78.71
2022-11-21T20:37:33.610Z,78.12
2022-11-21T20:40:09.431Z,78.38
2022-11-21T20:42:37.592Z,78.50
2022-11-21T20:46:07.200Z,78.61
2022-11-21T20:47:58.511Z,78.98
2022-11-21T20:51:18.071Z,79.14
2022-11-21T20:53:50.859Z,79.45
2022-11-21T20:56:03.812Z,78.95
2022-11-21T20:58:32.254Z,79.06
2022-11-21T21:01:04.925Z,79.20
2022-11-21T21:03:34.907Z,79.15
2022-11-21T21:06:07.178Z,79.13
2022-11-21T21:08:36.075Z,79.08
2022-11-21T21:11:30.693Z,78.99
2022-11-21T21:14:00.684Z,79.31
2022-11-21T21:16:30.384Z,79.30
2022-11-21T21:18:58.215Z,79.06
2022-11-21T21:21:28.996Z,79.42
2022-11-21T21:24:17.606Z,79.34
2022-11-21T21:26:48.070Z,79.79
2022-11-21T21:29:19.000Z,79.86
2022-11-21T21:31:52.811Z,80.07
2022-11-21T21:34:21.986Z,79.86
2022-11-21T21:36:53.315Z,80.09
2022-11-21T21:39:21.255Z,80.33
2022-11-21T21:41:49.342Z,80.03
2022-11-21T21:44:19.974Z,80.38
2022-11-21T21:46:49.297Z,80.03
2022-11-21T21:49:17.250Z,80.25
2022-11-21T21:51:45.149Z,79.93
2022-11-21T21:54:23.523Z,79.51
2022-11-21T21:56:52.471Z,79.72
2022-11-21T21:59:20.359Z,79.91
2022-11-21T22:01:49.652Z,79.80
2022-11-21T22:04:27.005Z,79.80
2022-11-21T22:06:55.063Z,79.40
2022-11-21T22:09:24.336Z,80.04
2022-11-21T22:11:54.186Z,79.58
2022-11-21T22:14:22.193Z,79.33
2022-11-21T22:16:51.951Z,79.33
2022-11-21T22:19:21.281Z,79.25
2022-11-21T22:21:49.103Z,79.30
2022-11-21T22:24:25.341Z,79.64
2022-11-21T22:26:54.586Z,79.81
2022-11-21T22:29:22.627Z,79.18
2022-11-21T22:31:59.591Z,79.82
2022-11-21T22:34:40.034Z,79.73
2022-11-21T22:37:08.387Z,79.65
2022-11-21T22:39:36.220Z,79.75
2022-11-21T22:42:06.733Z,79.98
2022-11-21T22:44:34.810Z,79.73
2022-11-21T22:47:06.366Z,79.50
2022-11-21T22:49:34.281Z,79.92
2022-11-21T22:52:09.453Z,79.99
2022-11-21T22:54:37.403Z,79.46
2022-11-21T22:57:05.264Z,79.75
2022-11-21T22:59:33.646Z,79.78
2022-11-21T23:02:08.181Z,80.01
2022-11-21T23:04:36.120Z,79.36
2022-11-21T23:07:04.168Z,79.43
2022-11-21T23:09:33.301Z,79.77
2022-11-21T23:12:02.286Z,79.92
2022-11-21T23:14:30.583Z,79.87
2022-11-21T23:16:58.536Z,79.95
2022-11-21T23:19:28.148Z,79.93
2022-11-21T23:21:56.105Z,80.15
2022-11-21T23:24:24.145Z,79.85
2022-11-21T23:26:55.437Z,80.42
2022-11-21T23:29:23.299Z,79.83
2022-11-21T23:31:52.470Z,80.22
2022-11-21T23:34:20.544Z,79.84
2022-11-21T23:36:49.666Z,80.54
2022-11-21T23:39:17.733Z,80.22
2022-11-21T23:41:45.708Z,80.09
2022-11-21T23:44:17.353Z,80.19
2022-11-21T23:46:53.460Z,79.93
2022-11-21T23:49:21.260Z,80.31
2022-11-21T23:51:56.431Z,80.40
2022-11-21T23:54:24.299Z,80.27
2022-11-21T23:56:55.230Z,80.14
2022-11-21T23:59:23.170Z,80.50
